Time;durP1;ratioP1;P1;durP2;ratioP2;P2;SDS_P1;SDS_P2;PMS_P1;PMS_P2;Temp;Humidity;BMP_temperature;BMP_pressure;BME280_temperature;BME280_humidity;BME280_pressure;Samples;Min_cycle;Max_cycle;Signal;HPM_P1;HPM_P2
2024/03/17 00:00:39;;;;;;;7.13;5.40;;;7.20;99.90;;;;;;4974747;28;20489;-69
2024/03/17 00:03:08;;;;;;;5.20;4.07;;;7.20;99.90;;;;;;4985342;28;20472;-68
2024/03/17 00:05:35;;;;;;;3.50;2.57;;;7.10;99.90;;;;;;4982638;28;21405;-70
2024/03/17 00:08:04;;;;;;;6.37;3.33;;;7.10;99.90;;;;;;4972354;28;20985;-69
2024/03/17 00:10:30;;;;;;;4.10;2.43;;;7.00;99.90;;;;;;4984034;28;20543;-68
2024/03/17 00:12:57;;;;;;;4.27;2.50;;;7.00;99.90;;;;;;4976332;28;20431;-69
2024/03/17 00:15:23;;;;;;;3.20;2.90;;;6.90;99.90;;;;;;4986032;28;20704;-70
2024/03/17 00:17:50;;;;;;;6.80;3.43;;;6.60;99.90;;;;;;4983398;28;20469;-70
2024/03/17 00:20:20;;;;;;;10.63;3.63;;;6.70;99.90;;;;;;4980579;28;20221;-69
2024/03/17 00:22:49;;;;;;;4.37;2.80;;;6.60;99.90;;;;;;4976487;28;20529;-69
2024/03/17 00:25:16;;;;;;;5.37;3.47;;;6.80;99.90;;;;;;4980161;28;20462;-69
2024/03/17 00:27:44;;;;;;;5.30;2.80;;;6.80;99.90;;;;;;4987109;28;20449;-69
2024/03/17 00:30:13;;;;;;;5.17;2.90;;;6.60;99.90;;;;;;4976478;28;20469;-69
2024/03/17 00:32:39;;;;;;;5.00;3.10;;;6.60;99.90;;;;;;4984691;28;20438;-69
2024/03/17 00:35:07;;;;;;;4.17;3.47;;;6.60;99.90;;;;;;4984899;28;20492;-69
2024/03/17 00:37:33;;;;;;;2.60;2.40;;;6.70;99.90;;;;;;4973534;28;20913;-69
2024/03/17 00:40:02;;;;;;;10.57;3.20;;;6.70;99.90;;;;;;4980522;28;20689;-69
2024/03/17 00:42:28;;;;;;;4.50;2.60;;;6.70;99.90;;;;;;4987459;28;20214;-69
2024/03/17 00:44:54;;;;;;;4.80;3.33;;;6.70;99.90;;;;;;4986121;28;20453;-69
2024/03/17 00:47:20;;;;;;;3.43;2.43;;;6.60;99.90;;;;;;4976322;28;20704;-69
2024/03/17 00:49:49;;;;;;;4.57;2.63;;;6.60;99.90;;;;;;4988235;28;20478;-69
2024/03/17 00:54:55;;;;;;;5.30;2.50;;;6.60;99.90;;;;;;5097823;23;21034;-72
2024/03/17 00:57:22;;;;;;;6.53;3.90;;;6.50;99.90;;;;;;5002202;28;20478;-73
2024/03/17 00:59:49;;;;;;;2.93;1.90;;;6.50;99.90;;;;;;4998401;28;20477;-72
2024/03/17 01:02:16;;;;;;;3.80;3.40;;;6.50;99.90;;;;;;4992309;28;20470;-72
2024/03/17 01:04:43;;;;;;;3.00;1.90;;;6.50;99.90;;;;;;4998669;28;20463;-74
2024/03/17 01:07:09;;;;;;;2.17;1.83;;;6.40;99.90;;;;;;4999971;28;20509;-73
2024/03/17 01:09:36;;;;;;;4.97;3.03;;;6.30;99.90;;;;;;4997628;28;20444;-72
2024/03/17 01:12:06;;;;;;;4.57;2.23;;;6.30;99.90;;;;;;4996392;28;20822;-72
2024/03/17 01:14:35;;;;;;;2.70;2.50;;;6.30;99.90;;;;;;4986403;28;20508;-72
2024/03/17 01:17:04;;;;;;;2.63;2.33;;;6.30;99.90;;;;;;4995171;28;20436;-72
2024/03/17 01:19:31;;;;;;;4.23;2.57;;;6.30;99.90;;;;;;4976544;28;20567;-72
2024/03/17 01:21:57;;;;;;;3.50;2.50;;;6.20;99.90;;;;;;4990474;28;20461;-72
2024/03/17 01:24:24;;;;;;;5.47;3.10;;;6.20;99.90;;;;;;4987783;28;21079;-72
2024/03/17 01:26:50;;;;;;;4.83;2.97;;;6.10;99.90;;;;;;4986399;28;20294;-72
2024/03/17 01:29:17;;;;;;;7.17;3.10;;;6.10;99.90;;;;;;4987864;28;20480;-72
2024/03/17 01:31:45;;;;;;;8.50;3.40;;;6.10;99.90;;;;;;4969411;28;20202;-71
2024/03/17 01:34:13;;;;;;;9.57;3.03;;;6.10;99.90;;;;;;4977166;28;20462;-72
2024/03/17 01:36:40;;;;;;;4.53;3.20;;;6.10;99.90;;;;;;4988166;28;20555;-71
2024/03/17 01:39:07;;;;;;;5.67;2.93;;;6.00;99.90;;;;;;4973160;28;20728;-71
2024/03/17 01:41:33;;;;;;;3.57;3.27;;;5.90;99.90;;;;;;4988591;28;20456;-72
2024/03/17 01:43:59;;;;;;;11.70;3.33;;;6.00;99.90;;;;;;4986984;28;20694;-72
2024/03/17 01:46:27;;;;;;;3.83;3.00;;;5.90;99.90;;;;;;4971765;28;20457;-72
2024/03/17 01:48:55;;;;;;;3.20;2.50;;;5.90;99.90;;;;;;4970364;28;20467;-72
2024/03/17 01:51:23;;;;;;;4.00;3.63;;;5.90;99.90;;;;;;4976482;28;20438;-72
2024/03/17 01:53:49;;;;;;;3.40;2.77;;;5.90;99.90;;;;;;4973469;28;20443;-72
2024/03/17 01:56:17;;;;;;;3.87;2.80;;;5.80;99.90;;;;;;4979942;28;20484;-71
2024/03/17 01:58:44;;;;;;;4.53;3.30;;;5.80;99.90;;;;;;4990646;28;20444;-72
2024/03/17 02:01:14;;;;;;;5.53;3.13;;;5.70;99.90;;;;;;4975821;28;20442;-73
2024/03/17 02:03:40;;;;;;;3.90;3.60;;;5.70;99.90;;;;;;4976437;28;20444;-72
2024/03/17 02:06:09;;;;;;;6.47;2.87;;;5.50;99.90;;;;;;4982328;28;21038;-72
2024/03/17 02:08:47;;;;;;;4.23;2.80;;;5.50;99.90;;;;;;4977868;28;20436;-72
2024/03/17 02:11:25;;;;;;;5.93;2.83;;;5.60;99.90;;;;;;4989288;28;20519;-72
2024/03/17 02:13:52;;;;;;;2.90;2.60;;;5.70;99.90;;;;;;4982977;28;20446;-71
2024/03/17 02:16:19;;;;;;;6.90;2.80;;;5.60;99.90;;;;;;4980569;28;20522;-72
2024/03/17 02:18:45;;;;;;;5.90;2.27;;;5.50;99.90;;;;;;4976695;28;20447;-71
2024/03/17 02:21:14;;;;;;;5.00;4.00;;;5.40;99.90;;;;;;4982881;28;20777;-71
2024/03/17 02:23:41;;;;;;;3.87;3.20;;;5.40;99.90;;;;;;4982652;28;20538;-72
2024/03/17 02:26:08;;;;;;;6.87;2.97;;;5.40;99.90;;;;;;4981583;28;20521;-71
2024/03/17 02:28:41;;;;;;;3.47;3.10;;;5.50;99.90;;;;;;4984676;28;20457;-71
2024/03/17 02:31:09;;;;;;;4.10;3.73;;;5.60;99.90;;;;;;4985631;28;20459;-72
2024/03/17 02:33:36;;;;;;;4.10;3.40;;;5.50;99.90;;;;;;4982319;28;20443;-72
2024/03/17 02:36:03;;;;;;;3.70;3.13;;;5.60;99.90;;;;;;4977113;28;20865;-72
2024/03/17 02:41:30;;;;;;;6.10;2.63;;;5.40;99.90;;;;;;4933016;28;20414;-72
2024/03/17 02:43:57;;;;;;;4.00;3.10;;;5.40;99.90;;;;;;4973836;28;20447;-72
2024/03/17 02:46:24;;;;;;;4.20;2.50;;;5.30;99.90;;;;;;4986739;28;20470;-71
2024/03/17 02:48:52;;;;;;;4.03;2.40;;;5.20;99.90;;;;;;4994430;28;23381;-72
2024/03/17 02:51:22;;;;;;;3.40;2.80;;;5.20;99.90;;;;;;4998652;28;20535;-72
2024/03/17 02:53:50;;;;;;;4.20;3.53;;;5.30;99.90;;;;;;4998489;28;20443;-72
2024/03/17 02:56:18;;;;;;;4.83;3.03;;;5.30;99.90;;;;;;4994213;28;20460;-73
2024/03/17 02:58:47;;;;;;;2.53;2.33;;;5.20;99.90;;;;;;4991537;28;20473;-72
2024/03/17 03:01:14;;;;;;;4.37;2.93;;;5.10;99.90;;;;;;4993336;28;20466;-72
2024/03/17 03:03:41;;;;;;;4.03;2.70;;;5.20;99.90;;;;;;4992612;28;21222;-72
2024/03/17 03:06:11;;;;;;;6.57;3.83;;;5.20;99.90;;;;;;5000889;28;20436;-73
2024/03/17 03:08:39;;;;;;;4.53;4.13;;;5.30;99.90;;;;;;4990489;28;20440;-74
2024/03/17 03:11:10;;;;;;;3.10;2.90;;;5.20;99.90;;;;;;4991731;28;20853;-73
2024/03/17 03:13:37;;;;;;;5.23;4.60;;;5.10;99.90;;;;;;4991890;28;20468;-74
2024/03/17 03:16:06;;;;;;;2.60;2.40;;;5.10;99.90;;;;;;4987333;28;20471;-74
2024/03/17 03:18:33;;;;;;;4.27;3.07;;;5.20;99.90;;;;;;4982544;28;20469;-73
2024/03/17 03:21:00;;;;;;;3.43;2.57;;;5.20;99.90;;;;;;4986586;28;20612;-73
2024/03/17 03:23:27;;;;;;;3.07;2.40;;;5.10;99.90;;;;;;4987989;28;20477;-73
2024/03/17 03:25:57;;;;;;;2.57;2.37;;;5.00;99.90;;;;;;4976147;28;20427;-73
2024/03/17 03:28:24;;;;;;;5.27;2.47;;;5.10;99.90;;;;;;4983845;28;20529;-73
2024/03/17 03:30:51;;;;;;;3.53;2.07;;;5.10;99.90;;;;;;4979592;28;20485;-73
2024/03/17 03:33:19;;;;;;;3.93;3.00;;;5.10;99.90;;;;;;4984204;28;20534;-73
2024/03/17 03:35:46;;;;;;;14.23;3.07;;;5.00;99.90;;;;;;4988787;28;20456;-73
2024/03/17 03:38:14;;;;;;;5.77;4.73;;;5.00;99.90;;;;;;4987241;28;20440;-72
2024/03/17 03:40:43;;;;;;;4.67;3.13;;;5.00;99.90;;;;;;4981935;28;21054;-72
2024/03/17 03:43:10;;;;;;;4.23;2.70;;;5.00;99.90;;;;;;4983237;28;20457;-72
2024/03/17 03:45:38;;;;;;;4.50;2.70;;;5.00;99.90;;;;;;4990899;28;21045;-72
2024/03/17 03:48:05;;;;;;;3.33;3.03;;;5.00;99.90;;;;;;4991620;28;22732;-72
2024/03/17 03:50:34;;;;;;;5.83;2.40;;;5.10;99.90;;;;;;4984309;28;20496;-72
2024/03/17 03:53:01;;;;;;;3.67;3.07;;;5.10;99.90;;;;;;4990802;28;20780;-73
2024/03/17 03:55:29;;;;;;;5.00;2.90;;;5.10;99.90;;;;;;4986463;28;21204;-72
2024/03/17 03:57:56;;;;;;;14.23;3.27;;;5.00;99.90;;;;;;4989498;28;20436;-74
2024/03/17 04:00:23;;;;;;;3.60;2.80;;;4.90;99.90;;;;;;4991992;28;20516;-73
2024/03/17 04:02:52;;;;;;;12.43;3.13;;;4.80;99.90;;;;;;4995137;28;21655;-73
2024/03/17 04:05:19;;;;;;;4.70;3.30;;;4.80;99.90;;;;;;4986919;28;20500;-72
2024/03/17 04:07:48;;;;;;;8.03;4.50;;;4.80;99.90;;;;;;4993364;28;20454;-72
2024/03/17 04:10:15;;;;;;;4.73;3.53;;;4.80;99.90;;;;;;4986228;28;20511;-72
2024/03/17 04:12:42;;;;;;;3.60;2.53;;;4.90;99.90;;;;;;4987201;28;20455;-72
2024/03/17 04:15:10;;;;;;;2.70;2.47;;;5.00;99.90;;;;;;4993277;28;20463;-72
2024/03/17 04:17:38;;;;;;;3.70;2.13;;;4.90;99.90;;;;;;4984458;28;20466;-72
2024/03/17 04:20:08;;;;;;;4.37;3.93;;;4.90;99.90;;;;;;4997079;28;20841;-72
2024/03/17 04:22:35;;;;;;;3.73;2.50;;;4.90;99.90;;;;;;4987028;28;20881;-72
2024/03/17 04:25:03;;;;;;;4.40;2.93;;;5.00;99.90;;;;;;4990750;28;20447;-73
2024/03/17 04:27:30;;;;;;;4.17;3.17;;;5.10;99.90;;;;;;4991266;28;20441;-73
2024/03/17 04:29:59;;;;;;;3.17;2.40;;;5.10;99.90;;;;;;4985894;28;20979;-72
2024/03/17 04:32:27;;;;;;;4.30;3.07;;;5.00;99.90;;;;;;4992470;28;20450;-73
2024/03/17 04:34:54;;;;;;;2.63;2.43;;;5.00;99.90;;;;;;4987323;28;20453;-73
2024/03/17 04:37:22;;;;;;;4.23;3.83;;;5.00;99.90;;;;;;4987442;28;20466;-73
2024/03/17 04:39:49;;;;;;;4.70;2.97;;;5.00;99.90;;;;;;4988393;28;21147;-73
2024/03/17 04:42:19;;;;;;;3.00;2.50;;;5.10;99.90;;;;;;4993683;28;20469;-73
2024/03/17 04:44:46;;;;;;;10.93;3.60;;;5.10;99.90;;;;;;4992833;28;20468;-72
2024/03/17 04:47:14;;;;;;;7.00;3.10;;;5.00;99.90;;;;;;4992548;28;20453;-72
2024/03/17 04:49:42;;;;;;;5.80;3.00;;;5.00;99.90;;;;;;4990063;28;20481;-72
2024/03/17 04:52:10;;;;;;;5.40;2.80;;;5.00;99.90;;;;;;4994991;28;21218;-72
2024/03/17 04:54:37;;;;;;;4.00;3.60;;;4.90;99.90;;;;;;4997164;28;20463;-72
2024/03/17 04:57:04;;;;;;;3.10;2.40;;;4.90;99.90;;;;;;4990908;28;20464;-72
2024/03/17 04:59:35;;;;;;;3.60;3.27;;;4.90;99.90;;;;;;4997980;28;20553;-72
2024/03/17 05:02:03;;;;;;;4.67;3.23;;;5.00;99.90;;;;;;4998895;28;20475;-72
2024/03/17 05:04:30;;;;;;;5.80;2.23;;;5.00;99.90;;;;;;4997032;28;20458;-72
2024/03/17 05:06:57;;;;;;;3.27;2.60;;;5.00;99.90;;;;;;5001305;28;20456;-73
2024/03/17 05:09:23;;;;;;;6.83;3.57;;;5.00;99.90;;;;;;4996408;28;20485;-73
2024/03/17 05:11:52;;;;;;;3.37;2.57;;;5.00;99.90;;;;;;4997182;28;20451;-74
2024/03/17 05:14:19;;;;;;;6.43;4.07;;;5.10;99.90;;;;;;4986000;28;20482;-73
2024/03/17 05:16:49;;;;;;;3.73;2.90;;;5.00;99.90;;;;;;4991624;28;20509;-74
2024/03/17 05:19:17;;;;;;;3.27;2.63;;;4.90;99.90;;;;;;4980800;28;20604;-74
2024/03/17 05:21:44;;;;;;;4.27;2.77;;;4.80;99.90;;;;;;4988374;28;20446;-74
2024/03/17 05:24:12;;;;;;;3.87;3.23;;;4.90;99.90;;;;;;4995984;28;21002;-74
2024/03/17 05:26:39;;;;;;;4.20;2.90;;;4.90;99.90;;;;;;4989031;28;20461;-74
2024/03/17 05:29:05;;;;;;;3.43;2.63;;;5.00;99.90;;;;;;4984559;28;20476;-73
2024/03/17 05:31:32;;;;;;;3.33;3.00;;;5.00;99.90;;;;;;4981335;28;20511;-72
2024/03/17 05:34:00;;;;;;;17.07;2.47;;;5.00;99.90;;;;;;4984201;28;20522;-73
2024/03/17 05:36:32;;;;;;;2.97;2.13;;;5.00;99.90;;;;;;4988409;28;20495;-73
2024/03/17 05:38:59;;;;;;;3.60;3.30;;;4.90;99.90;;;;;;4995436;28;20434;-73
2024/03/17 05:41:25;;;;;;;4.20;2.80;;;4.90;99.90;;;;;;4989735;28;20767;-72
2024/03/17 05:43:53;;;;;;;4.80;3.30;;;4.90;99.90;;;;;;4993569;28;20537;-72
2024/03/17 05:46:19;;;;;;;2.67;2.33;;;4.90;99.90;;;;;;4988149;28;21090;-73
2024/03/17 05:48:46;;;;;;;2.70;2.50;;;4.80;99.90;;;;;;4993289;28;20939;-72
2024/03/17 05:51:16;;;;;;;2.87;2.57;;;4.90;99.90;;;;;;4983204;28;20435;-73
2024/03/17 05:53:44;;;;;;;4.53;4.13;;;4.90;99.90;;;;;;4988344;28;20440;-72
2024/03/17 05:56:12;;;;;;;11.27;3.77;;;5.00;99.90;;;;;;4988687;28;20486;-73
2024/03/17 05:58:39;;;;;;;5.10;2.80;;;5.00;99.90;;;;;;4990221;28;20791;-72
2024/03/17 06:01:07;;;;;;;3.70;3.00;;;4.90;99.90;;;;;;4992283;28;20842;-73
2024/03/17 06:03:35;;;;;;;5.30;3.57;;;4.90;99.90;;;;;;4988239;28;20518;-71
2024/03/17 06:06:04;;;;;;;4.43;3.60;;;5.00;99.90;;;;;;4995477;28;20449;-72
2024/03/17 06:08:32;;;;;;;4.93;2.80;;;5.00;99.90;;;;;;4989173;28;20473;-72
2024/03/17 06:11:00;;;;;;;7.13;3.80;;;5.00;99.90;;;;;;4995501;28;20485;-72
2024/03/17 06:13:28;;;;;;;4.23;2.90;;;5.10;99.90;;;;;;4986274;28;20461;-74
2024/03/17 06:15:55;;;;;;;6.40;3.60;;;5.10;99.90;;;;;;4998487;28;20494;-73
2024/03/17 06:18:23;;;;;;;6.80;2.60;;;5.10;99.90;;;;;;4986108;28;20879;-72
2024/03/17 06:20:50;;;;;;;5.50;3.90;;;5.10;99.90;;;;;;4992154;28;20474;-72
2024/03/17 06:23:19;;;;;;;6.57;3.40;;;5.20;99.90;;;;;;4993917;28;20489;-72
2024/03/17 06:25:50;;;;;;;7.37;3.93;;;5.30;99.90;;;;;;4991814;28;20467;-73
2024/03/17 06:28:17;;;;;;;7.17;3.00;;;5.40;99.90;;;;;;4991963;28;20431;-73
2024/03/17 06:30:46;;;;;;;4.00;3.10;;;5.40;99.90;;;;;;4997431;28;20522;-74
2024/03/17 06:33:19;;;;;;;5.43;3.80;;;5.70;99.90;;;;;;4996359;28;20906;-73
2024/03/17 06:35:46;;;;;;;5.57;3.63;;;6.00;99.90;;;;;;5003044;28;20496;-72
2024/03/17 06:38:16;;;;;;;6.47;3.33;;;6.20;99.90;;;;;;4994514;28;20527;-72
2024/03/17 06:40:42;;;;;;;10.73;3.30;;;6.50;99.90;;;;;;4994287;28;20451;-71
2024/03/17 06:43:10;;;;;;;3.93;3.17;;;6.60;99.90;;;;;;4990907;28;20439;-73
2024/03/17 06:45:37;;;;;;;7.73;3.60;;;6.80;99.90;;;;;;4994034;28;20931;-73
2024/03/17 06:48:04;;;;;;;7.20;3.47;;;6.90;99.90;;;;;;4998827;28;20473;-74
2024/03/17 06:50:31;;;;;;;5.87;3.70;;;7.10;99.90;;;;;;5003976;28;20451;-73
2024/03/17 06:52:58;;;;;;;3.17;2.63;;;7.20;99.90;;;;;;5002071;28;20454;-74
2024/03/17 06:55:24;;;;;;;10.50;4.33;;;7.20;99.90;;;;;;5006077;28;20456;-72
2024/03/17 06:57:52;;;;;;;8.17;5.03;;;7.40;99.90;;;;;;4997224;28;20556;-73
2024/03/17 07:00:24;;;;;;;4.37;3.23;;;7.70;99.90;;;;;;5006003;23;20560;-71
2024/03/17 07:02:51;;;;;;;7.83;4.40;;;7.90;99.90;;;;;;4994825;28;20450;-71
2024/03/17 07:05:18;;;;;;;7.40;3.43;;;8.00;99.90;;;;;;4993424;28;20482;-71
2024/03/17 07:07:45;;;;;;;4.50;3.47;;;8.00;99.90;;;;;;4988063;28;20485;-71
2024/03/17 07:10:13;;;;;;;9.23;3.73;;;8.00;99.90;;;;;;4991884;28;21149;-71
2024/03/17 07:12:40;;;;;;;5.67;4.07;;;8.00;99.90;;;;;;4998378;28;20462;-71
2024/03/17 07:15:08;;;;;;;6.60;5.00;;;8.00;99.90;;;;;;4998427;28;20468;-71
2024/03/17 07:17:36;;;;;;;4.93;2.90;;;8.00;99.90;;;;;;4995646;28;20509;-71
2024/03/17 07:20:08;;;;;;;8.20;3.33;;;8.00;99.90;;;;;;4988375;28;20515;-70
2024/03/17 07:22:34;;;;;;;10.10;4.33;;;8.20;99.90;;;;;;4989492;28;20538;-70
2024/03/17 07:25:02;;;;;;;7.20;4.20;;;8.30;99.90;;;;;;4997830;28;20460;-71
2024/03/17 07:27:28;;;;;;;6.87;4.07;;;8.50;99.90;;;;;;5000577;28;20527;-71
2024/03/17 07:29:55;;;;;;;7.90;4.70;;;8.60;99.90;;;;;;4996410;28;20483;-71
2024/03/17 07:32:23;;;;;;;4.40;3.47;;;8.90;99.90;;;;;;4985083;28;20449;-71
2024/03/17 07:34:51;;;;;;;5.37;3.50;;;9.10;99.90;;;;;;5001771;28;21041;-71
2024/03/17 07:37:17;;;;;;;3.03;2.73;;;9.30;99.90;;;;;;4994985;28;20496;-71
2024/03/17 07:39:44;;;;;;;6.00;3.77;;;9.50;99.90;;;;;;4991084;28;20459;-71
2024/03/17 07:42:13;;;;;;;5.80;2.90;;;9.70;99.90;;;;;;4992220;28;20632;-71
2024/03/17 07:44:39;;;;;;;5.33;3.80;;;9.70;99.90;;;;;;5001549;28;20436;-71
2024/03/17 07:47:07;;;;;;;7.13;3.70;;;9.80;99.90;;;;;;5001526;28;20475;-71
2024/03/17 07:49:34;;;;;;;6.43;3.70;;;10.00;99.90;;;;;;4989010;28;20486;-71
2024/03/17 07:52:02;;;;;;;5.87;4.93;;;10.10;99.90;;;;;;4990168;28;20477;-71
2024/03/17 07:54:29;;;;;;;4.00;3.60;;;10.20;99.90;;;;;;4983282;28;20538;-72
2024/03/17 07:56:56;;;;;;;7.90;4.53;;;10.40;99.90;;;;;;4995461;28;20495;-72
2024/03/17 07:59:22;;;;;;;6.00;3.00;;;10.40;99.90;;;;;;4987670;28;20947;-72
2024/03/17 08:01:50;;;;;;;5.97;4.20;;;10.40;99.90;;;;;;4994108;28;20469;-72
2024/03/17 08:04:17;;;;;;;7.30;3.00;;;10.40;99.90;;;;;;4985503;28;20465;-72
2024/03/17 08:06:44;;;;;;;5.77;3.30;;;10.20;99.90;;;;;;4994354;28;20473;-72
2024/03/17 08:09:12;;;;;;;9.63;4.50;;;10.00;99.90;;;;;;4984540;28;20516;-70
2024/03/17 08:11:43;;;;;;;6.77;3.33;;;10.00;99.90;;;;;;4992099;28;20556;-71
2024/03/17 08:14:10;;;;;;;8.10;3.33;;;10.20;99.90;;;;;;4984683;28;20520;-72
2024/03/17 08:16:37;;;;;;;8.70;4.43;;;10.40;99.90;;;;;;4992199;28;20988;-72
2024/03/17 08:19:04;;;;;;;4.90;3.60;;;10.50;99.90;;;;;;4986819;28;20598;-71
2024/03/17 08:21:30;;;;;;;5.80;2.90;;;10.50;99.90;;;;;;4989512;28;20473;-71
2024/03/17 08:23:57;;;;;;;6.23;4.63;;;10.80;99.90;;;;;;4993966;28;20449;-72
2024/03/17 08:26:25;;;;;;;6.63;4.40;;;11.20;99.90;;;;;;4987514;28;20436;-71
2024/03/17 08:28:52;;;;;;;4.43;2.90;;;11.70;99.90;;;;;;4991863;28;20458;-71
2024/03/17 08:31:19;;;;;;;8.03;3.17;;;11.60;99.90;;;;;;4988705;28;20461;-71
2024/03/17 08:33:46;;;;;;;5.60;3.80;;;11.90;99.90;;;;;;4981305;28;20462;-71
2024/03/17 08:36:16;;;;;;;5.00;3.23;;;12.20;99.90;;;;;;4988792;28;20461;-70
2024/03/17 08:38:43;;;;;;;7.27;4.50;;;12.40;99.90;;;;;;4986993;28;20933;-71
2024/03/17 08:41:11;;;;;;;4.33;3.20;;;12.50;99.90;;;;;;4991936;28;20788;-71
2024/03/17 08:43:40;;;;;;;4.37;2.67;;;12.70;99.90;;;;;;4977708;28;20492;-70
2024/03/17 08:46:09;;;;;;;4.37;3.47;;;13.00;99.90;;;;;;4985753;28;20462;-71
2024/03/17 08:48:37;;;;;;;4.40;3.30;;;13.00;99.90;;;;;;4986557;28;20483;-70
2024/03/17 08:51:05;;;;;;;7.03;3.60;;;13.20;99.90;;;;;;4981458;28;20496;-73
2024/03/17 08:53:32;;;;;;;4.63;3.20;;;13.40;99.90;;;;;;4975626;28;20503;-70
2024/03/17 08:56:00;;;;;;;10.40;3.77;;;13.20;99.90;;;;;;4991868;28;20489;-71
2024/03/17 08:58:27;;;;;;;4.37;2.67;;;13.60;99.90;;;;;;4988925;28;20491;-71
2024/03/17 09:00:56;;;;;;;7.23;3.43;;;14.20;99.90;;;;;;4988924;28;20836;-71
2024/03/17 09:03:23;;;;;;;3.00;2.53;;;14.60;99.90;;;;;;4987894;28;20469;-72
2024/03/17 09:05:52;;;;;;;3.73;3.43;;;15.00;99.90;;;;;;4988317;28;20462;-71
2024/03/17 09:08:21;;;;;;;9.83;4.53;;;15.70;99.90;;;;;;4985735;28;20551;-71
2024/03/17 09:10:49;;;;;;;6.33;3.50;;;15.70;99.90;;;;;;4990681;28;20489;-70
2024/03/17 09:13:18;;;;;;;3.30;3.00;;;15.30;99.90;;;;;;4984075;28;20466;-71
2024/03/17 09:15:51;;;;;;;5.13;3.30;;;15.20;99.90;;;;;;4999413;28;20468;-71
2024/03/17 09:18:19;;;;;;;5.80;2.43;;;15.40;99.90;;;;;;4985888;28;20568;-71
2024/03/17 09:20:46;;;;;;;3.50;2.73;;;16.00;99.90;;;;;;4992025;28;20486;-71
2024/03/17 09:23:13;;;;;;;4.80;3.93;;;16.40;99.90;;;;;;4984278;28;20850;-71
2024/03/17 09:25:40;;;;;;;3.83;2.87;;;16.50;99.90;;;;;;4983132;28;20544;-71
2024/03/17 09:28:07;;;;;;;8.20;3.53;;;16.80;99.90;;;;;;4980180;28;20944;-71
2024/03/17 09:30:35;;;;;;;3.17;2.63;;;17.50;99.90;;;;;;4989620;28;20478;-72
2024/03/17 09:33:02;;;;;;;3.93;2.77;;;16.70;99.90;;;;;;4980674;28;20477;-72
2024/03/17 09:35:30;;;;;;;5.90;2.43;;;16.10;99.90;;;;;;4983602;28;20489;-70
2024/03/17 09:37:57;;;;;;;4.13;3.00;;;16.70;99.90;;;;;;4980136;28;20474;-71
2024/03/17 09:40:23;;;;;;;5.27;2.87;;;17.40;99.90;;;;;;4985219;28;20980;-71
2024/03/17 09:42:50;;;;;;;7.43;2.83;;;17.00;99.90;;;;;;4978201;28;21129;-71
2024/03/17 09:45:19;;;;;;;3.20;2.90;;;16.50;99.90;;;;;;4969942;28;26152;-71
2024/03/17 09:47:46;;;;;;;8.43;3.20;;;16.50;99.90;;;;;;4979515;28;20944;-71
2024/03/17 09:50:15;;;;;;;2.37;2.17;;;16.50;99.90;;;;;;4981334;28;21376;-71
2024/03/17 09:52:45;;;;;;;2.40;2.20;;;16.60;99.90;;;;;;4985761;28;20583;-71
2024/03/17 09:55:17;;;;;;;5.80;2.50;;;16.90;99.90;;;;;;4984629;28;20468;-71
2024/03/17 09:57:44;;;;;;;3.00;2.50;;;16.60;99.90;;;;;;4983452;28;20482;-71
2024/03/17 10:00:14;;;;;;;2.30;1.83;;;17.30;99.90;;;;;;4982345;28;20521;-71
2024/03/17 10:02:44;;;;;;;2.83;2.43;;;18.00;99.90;;;;;;4978317;28;20471;-72
2024/03/17 10:05:20;;;;;;;3.40;2.30;;;18.70;99.90;;;;;;4975953;28;20465;-70
2024/03/17 10:07:49;;;;;;;3.70;2.50;;;18.60;99.90;;;;;;4982733;28;20557;-72
2024/03/17 10:10:17;;;;;;;5.40;3.00;;;17.80;99.90;;;;;;4979913;28;20485;-72
2024/03/17 10:12:45;;;;;;;4.43;2.70;;;17.80;99.90;;;;;;4987798;28;20511;-72
2024/03/17 10:15:12;;;;;;;2.27;1.83;;;18.40;99.90;;;;;;4982894;28;20458;-71
2024/03/17 10:17:39;;;;;;;3.20;1.77;;;18.50;99.90;;;;;;4982692;28;20520;-72
2024/03/17 10:20:15;;;;;;;3.40;2.57;;;18.00;99.90;;;;;;4986560;28;20825;-72
2024/03/17 10:22:58;;;;;;;3.90;2.83;;;17.30;99.90;;;;;;4986772;28;20487;-72
2024/03/17 10:25:25;;;;;;;2.70;2.17;;;17.30;99.90;;;;;;4983433;28;20460;-72
2024/03/17 10:27:52;;;;;;;5.53;2.70;;;17.00;99.90;;;;;;4988203;28;20462;-72
2024/03/17 10:30:21;;;;;;;4.40;2.37;;;16.90;99.90;;;;;;4991822;28;20545;-72
2024/03/17 10:32:54;;;;;;;3.10;2.30;;;16.50;99.90;;;;;;4990718;28;20472;-72
2024/03/17 10:35:29;;;;;;;5.70;3.33;;;16.60;99.90;;;;;;4986292;28;20477;-72
2024/03/17 10:37:59;;;;;;;4.13;2.03;;;16.30;99.90;;;;;;4984380;28;20488;-72
2024/03/17 10:40:27;;;;;;;8.83;3.13;;;16.40;99.90;;;;;;4983517;28;20481;-71
2024/03/17 10:42:55;;;;;;;3.10;2.63;;;16.60;99.90;;;;;;4982703;28;20818;-72
2024/03/17 10:45:22;;;;;;;5.30;2.20;;;16.90;99.90;;;;;;4987679;28;20467;-72
2024/03/17 10:47:50;;;;;;;3.03;2.40;;;16.60;99.90;;;;;;4995070;28;21031;-72
2024/03/17 10:50:19;;;;;;;5.77;2.70;;;16.30;99.90;;;;;;4992704;28;20485;-71
2024/03/17 10:52:49;;;;;;;3.87;2.97;;;16.70;99.90;;;;;;4992159;28;20473;-71
2024/03/17 10:55:23;;;;;;;4.13;2.43;;;16.80;99.90;;;;;;4988070;28;20469;-71
2024/03/17 10:57:51;;;;;;;8.83;3.43;;;17.00;99.90;;;;;;4995002;28;20558;-70
2024/03/17 11:00:21;;;;;;;3.30;2.00;;;16.50;99.90;;;;;;4995567;28;20484;-71
2024/03/17 11:02:51;;;;;;;2.80;2.20;;;16.20;99.90;;;;;;4983199;28;20957;-72
2024/03/17 11:05:21;;;;;;;2.17;1.97;;;16.10;99.90;;;;;;4994244;28;20839;-70
2024/03/17 11:07:50;;;;;;;5.53;2.40;;;16.00;99.90;;;;;;4995387;28;20527;-70
2024/03/17 11:10:21;;;;;;;5.23;3.00;;;15.80;99.90;;;;;;4985311;28;20481;-70
2024/03/17 11:12:50;;;;;;;2.20;1.70;;;15.90;99.90;;;;;;4989630;28;20465;-70
2024/03/17 11:15:51;;;;;;;2.37;2.00;;;16.00;99.90;;;;;;4981159;28;20461;-70
2024/03/17 11:18:36;;;;;;;3.77;1.90;;;15.80;99.90;;;;;;4977342;28;20489;-74
2024/03/17 11:21:10;;;;;;;2.10;1.83;;;16.50;99.90;;;;;;4983590;28;20481;-70
2024/03/17 11:23:38;;;;;;;3.43;2.30;;;17.10;99.90;;;;;;4976341;28;21663;-70
2024/03/17 11:26:08;;;;;;;3.00;2.70;;;17.50;99.90;;;;;;4984782;28;20472;-70
2024/03/17 11:28:57;;;;;;;4.27;2.13;;;17.00;99.90;;;;;;4983149;28;20453;-71
2024/03/17 11:31:44;;;;;;;3.70;2.30;;;17.00;99.90;;;;;;4975402;28;20545;-71
2024/03/17 11:34:30;;;;;;;4.03;2.10;;;17.50;99.90;;;;;;4985402;28;20472;-70
2024/03/17 11:36:57;;;;;;;2.17;1.97;;;17.80;99.90;;;;;;4977808;28;20453;-71
2024/03/17 11:39:55;;;;;;;2.40;1.93;;;17.70;99.90;;;;;;4985580;28;20528;-71
2024/03/17 11:42:24;;;;;;;2.77;2.47;;;17.70;99.90;;;;;;4976540;28;20958;-71
2024/03/17 11:44:58;;;;;;;5.03;1.90;;;17.90;99.90;;;;;;4987482;28;20480;-71
2024/03/17 11:47:37;;;;;;;2.40;1.77;;;18.00;99.90;;;;;;4979336;28;20460;-70
2024/03/17 11:50:05;;;;;;;3.57;2.57;;;18.00;98.80;;;;;;4990880;28;20567;-71
2024/03/17 11:52:32;;;;;;;3.60;2.50;;;18.00;99.90;;;;;;4989054;28;20547;-71
2024/03/17 11:54:58;;;;;;;2.10;1.90;;;18.20;99.10;;;;;;4986332;28;20492;-71
2024/03/17 11:57:27;;;;;;;6.53;4.43;;;18.40;99.80;;;;;;4989878;28;21089;-71
2024/03/17 11:59:54;;;;;;;4.30;2.90;;;18.40;99.00;;;;;;4991083;28;20285;-71
2024/03/17 12:02:22;;;;;;;2.53;1.90;;;18.50;98.90;;;;;;4984389;28;20468;-71
2024/03/17 12:04:49;;;;;;;4.10;3.20;;;18.80;98.20;;;;;;4991955;28;20469;-71
2024/03/17 12:07:17;;;;;;;2.17;1.83;;;18.40;99.00;;;;;;4992220;28;20453;-71
2024/03/17 12:09:45;;;;;;;4.37;2.47;;;18.80;97.70;;;;;;4980644;28;20486;-71
2024/03/17 12:12:17;;;;;;;4.17;2.37;;;19.20;97.00;;;;;;4985378;28;20473;-71
2024/03/17 12:14:44;;;;;;;2.37;1.80;;;19.40;96.50;;;;;;4990219;28;20842;-71
2024/03/17 12:17:13;;;;;;;5.87;3.43;;;19.70;96.30;;;;;;4982565;28;20457;-71
2024/03/17 12:19:39;;;;;;;2.57;1.90;;;19.60;97.90;;;;;;4990525;28;20491;-72
2024/03/17 12:22:07;;;;;;;3.20;2.90;;;19.70;97.20;;;;;;4994713;28;20460;-71
2024/03/17 12:24:35;;;;;;;5.80;3.67;;;18.50;97.60;;;;;;4986788;28;20450;-72
2024/03/17 12:27:05;;;;;;;4.90;2.20;;;18.40;98.10;;;;;;4987116;28;20523;-71
2024/03/17 12:29:32;;;;;;;2.47;2.17;;;18.30;97.90;;;;;;4984507;28;20474;-71
2024/03/17 12:32:02;;;;;;;2.87;1.80;;;18.00;98.20;;;;;;4982457;28;20465;-72
2024/03/17 12:34:30;;;;;;;2.30;1.97;;;17.60;99.30;;;;;;4986125;28;20477;-72
2024/03/17 12:36:58;;;;;;;4.23;2.27;;;16.90;99.70;;;;;;4986176;28;20463;-72
2024/03/17 12:39:26;;;;;;;3.67;2.37;;;16.90;99.90;;;;;;4984023;28;20489;-72
2024/03/17 12:42:06;;;;;;;3.00;2.30;;;17.30;99.90;;;;;;4983744;28;20465;-72
2024/03/17 12:44:33;;;;;;;3.23;1.73;;;17.50;99.80;;;;;;4988728;28;20484;-72
2024/03/17 12:47:03;;;;;;;2.60;2.10;;;17.50;99.90;;;;;;4991282;28;20464;-72
2024/03/17 12:49:29;;;;;;;3.30;2.20;;;18.10;99.70;;;;;;4996168;28;20957;-72
2024/03/17 12:51:56;;;;;;;5.50;2.30;;;18.20;98.50;;;;;;4987481;28;20457;-72
2024/03/17 12:54:24;;;;;;;2.93;2.30;;;17.80;99.60;;;;;;4996575;28;20461;-72
2024/03/17 13:02:28;;;;;;;4.57;2.47;;;17.10;99.20;;;;;;5026285;28;20593;-72
2024/03/17 13:05:09;;;;;;;3.97;1.87;;;17.40;99.60;;;;;;5032861;28;20562;-72
2024/03/17 13:07:36;;;;;;;4.20;2.30;;;17.20;98.70;;;;;;5038236;28;20502;-73
2024/03/17 13:10:04;;;;;;;2.57;2.37;;;16.90;99.60;;;;;;5046261;28;21017;-73